createdAt,value
2022-11-27T00:01:39.981Z,5.78
2022-11-27T00:04:03.757Z,5.30
2022-11-27T00:06:29.360Z,5.47
2022-11-27T00:08:52.993Z,5.90
2022-11-27T00:11:19.074Z,6.30
2022-11-27T00:13:44.030Z,5.77
2022-11-27T00:16:08.433Z,5.00
2022-11-27T00:18:32.259Z,6.10
2022-11-27T00:20:55.543Z,5.67
2022-11-27T00:23:18.838Z,4.95
2022-11-27T00:25:42.082Z,5.23
2022-11-27T00:28:05.791Z,4.77
2022-11-27T00:30:30.510Z,5.23
2022-11-27T00:32:53.855Z,4.60
2022-11-27T00:35:17.429Z,4.82
2022-11-27T00:37:40.888Z,5.30
2022-11-27T00:40:04.475Z,4.93
2022-11-27T00:42:27.786Z,4.90
2022-11-27T00:44:51.035Z,4.70
2022-11-27T00:47:15.646Z,4.47
2022-11-27T00:49:38.962Z,4.97
2022-11-27T00:52:02.480Z,4.13
2022-11-27T00:54:25.781Z,5.27
2022-11-27T00:56:49.017Z,4.73
2022-11-27T00:59:12.808Z,4.07
2022-11-27T01:01:38.867Z,4.63
2022-11-27T01:04:06.321Z,3.93
2022-11-27T01:06:30.956Z,4.57
2022-11-27T01:08:54.650Z,4.63
2022-11-27T01:11:21.724Z,4.80
2022-11-27T01:13:45.170Z,4.40
2022-11-27T01:16:11.130Z,4.40
2022-11-27T01:18:35.642Z,4.47
2022-11-27T01:21:00.595Z,4.47
2022-11-27T01:23:25.361Z,5.03
2022-11-27T01:25:49.311Z,4.05
2022-11-27T01:28:12.577Z,4.10
2022-11-27T01:30:38.316Z,4.43
2022-11-27T01:33:01.797Z,4.47
2022-11-27T01:35:25.061Z,3.93
2022-11-27T01:37:49.643Z,4.32
2022-11-27T01:40:13.850Z,4.00
2022-11-27T01:42:37.048Z,3.93
2022-11-27T01:45:00.420Z,3.80
2022-11-27T01:47:35.413Z,4.63
2022-11-27T01:50:09.637Z,3.60
2022-11-27T01:52:38.636Z,4.20
2022-11-27T01:55:07.711Z,3.92
2022-11-27T01:57:36.493Z,4.00
2022-11-27T02:00:01.847Z,3.70
2022-11-27T02:02:25.145Z,4.00
2022-11-27T02:04:48.489Z,4.23
2022-11-27T02:07:11.913Z,3.90
2022-11-27T02:09:35.747Z,4.00
2022-11-27T02:12:25.039Z,3.87
2022-11-27T02:14:58.645Z,4.53
2022-11-27T02:17:28.781Z,4.10
2022-11-27T02:20:17.586Z,3.97
2022-11-27T02:22:57.922Z,3.78
2022-11-27T02:25:35.767Z,3.63
2022-11-27T02:28:20.307Z,3.87
2022-11-27T02:30:52.868Z,3.85
2022-11-27T02:33:22.521Z,4.10
2022-11-27T02:35:53.770Z,4.20
2022-11-27T02:38:23.000Z,3.80
2022-11-27T02:40:55.075Z,4.13
2022-11-27T02:43:23.526Z,4.30
2022-11-27T02:45:51.915Z,4.00
2022-11-27T02:48:18.097Z,4.20
2022-11-27T02:50:44.779Z,3.87
2022-11-27T02:53:11.978Z,5.10
2022-11-27T02:55:39.466Z,4.80
2022-11-27T02:58:08.287Z,4.00
2022-11-27T03:00:32.241Z,3.70
2022-11-27T03:03:01.826Z,4.67
2022-11-27T03:05:29.506Z,4.60
2022-11-27T03:07:58.746Z,4.97
2022-11-27T03:10:29.970Z,4.60
2022-11-27T03:12:54.375Z,4.53
2022-11-27T03:15:18.559Z,4.50
2022-11-27T03:17:57.545Z,5.10
2022-11-27T03:20:25.417Z,4.97
2022-11-27T03:22:49.114Z,4.70
2022-11-27T03:25:12.538Z,5.85
2022-11-27T03:27:41.608Z,5.87
2022-11-27T03:30:09.986Z,5.77
2022-11-27T03:32:34.294Z,5.83
2022-11-27T03:34:59.161Z,5.87
2022-11-27T03:37:23.659Z,6.83
2022-11-27T03:39:47.527Z,6.50
2022-11-27T03:42:22.123Z,6.57
2022-11-27T03:44:55.233Z,6.50
2022-11-27T03:47:38.800Z,7.10
2022-11-27T03:50:21.818Z,7.73
2022-11-27T03:52:53.946Z,7.90
2022-11-27T03:55:22.844Z,7.87
2022-11-27T03:57:56.600Z,9.07
2022-11-27T04:00:20.460Z,9.00
2022-11-27T04:02:47.848Z,7.70
2022-11-27T04:05:13.925Z,9.00
2022-11-27T04:07:37.287Z,9.43
2022-11-27T04:10:00.549Z,9.63
2022-11-27T04:12:23.842Z,8.63
2022-11-27T04:14:47.170Z,9.23
2022-11-27T04:17:10.783Z,9.93
2022-11-27T04:19:34.266Z,9.30
2022-11-27T04:21:58.867Z,9.83
2022-11-27T04:24:22.242Z,9.53
2022-11-27T04:26:45.492Z,9.87
2022-11-27T04:29:08.702Z,10.23
2022-11-27T04:31:32.045Z,10.00
2022-11-27T04:33:55.326Z,10.77
2022-11-27T04:36:18.634Z,10.90
2022-11-27T04:38:43.265Z,10.27
2022-11-27T04:41:06.881Z,10.23
2022-11-27T04:43:30.606Z,10.67
2022-11-27T04:45:53.866Z,10.67
2022-11-27T04:48:17.172Z,9.50
2022-11-27T04:50:41.272Z,10.53
2022-11-27T04:53:04.993Z,11.05
2022-11-27T04:55:29.967Z,9.70
2022-11-27T04:57:53.256Z,9.85
2022-11-27T05:00:17.537Z,10.32
2022-11-27T05:02:40.906Z,10.37
2022-11-27T05:05:05.033Z,9.87
2022-11-27T05:07:28.555Z,10.50
2022-11-27T05:09:52.230Z,10.53
2022-11-27T05:12:16.884Z,10.03
2022-11-27T05:14:40.292Z,9.90
2022-11-27T05:17:03.714Z,10.13
2022-11-27T05:19:30.003Z,10.70
2022-11-27T05:21:54.878Z,10.20
2022-11-27T05:24:20.477Z,10.50
2022-11-27T05:26:43.979Z,10.67
2022-11-27T05:29:09.518Z,10.60
2022-11-27T05:31:32.999Z,9.60
2022-11-27T05:33:56.747Z,10.57
2022-11-27T05:36:20.383Z,9.60
2022-11-27T05:38:43.740Z,9.57
2022-11-27T05:41:07.166Z,10.13
2022-11-27T05:43:30.510Z,10.03
2022-11-27T05:45:55.142Z,9.60
2022-11-27T05:48:18.385Z,10.00
2022-11-27T05:50:41.756Z,9.20
2022-11-27T05:53:05.047Z,9.17
2022-11-27T05:55:28.572Z,9.63
2022-11-27T05:57:51.863Z,9.33
2022-11-27T06:00:16.809Z,9.37
2022-11-27T06:02:41.563Z,9.47
2022-11-27T06:05:05.181Z,9.47
2022-11-27T06:07:28.541Z,9.43
2022-11-27T06:09:51.824Z,8.77
2022-11-27T06:12:15.096Z,9.27
2022-11-27T06:14:38.609Z,8.67
2022-11-27T06:17:02.554Z,7.90
2022-11-27T06:19:27.123Z,9.17
2022-11-27T06:21:50.430Z,8.43
2022-11-27T06:24:13.662Z,8.80
2022-11-27T06:26:36.889Z,7.80
2022-11-27T06:29:02.900Z,8.37
2022-11-27T06:31:29.350Z,8.17
2022-11-27T06:33:54.703Z,8.00
2022-11-27T06:36:21.180Z,8.37
2022-11-27T06:38:45.058Z,7.80
2022-11-27T06:41:10.677Z,7.83
2022-11-27T06:43:34.924Z,7.33
2022-11-27T06:45:58.924Z,7.43
2022-11-27T06:48:22.190Z,7.63
2022-11-27T06:50:45.422Z,8.10
2022-11-27T06:53:10.132Z,6.43
2022-11-27T06:55:33.413Z,7.30
2022-11-27T06:57:56.733Z,7.77
2022-11-27T07:00:21.457Z,6.90
2022-11-27T07:02:44.982Z,7.10
2022-11-27T07:05:09.044Z,7.03
2022-11-27T07:07:32.461Z,7.07
2022-11-27T07:09:57.109Z,7.13
2022-11-27T07:12:20.355Z,7.73
2022-11-27T07:14:43.621Z,6.53
2022-11-27T07:17:06.985Z,6.90
2022-11-27T07:19:30.391Z,6.60
2022-11-27T07:21:53.669Z,6.70
2022-11-27T07:24:17.060Z,7.10
2022-11-27T07:26:41.913Z,6.57
2022-11-27T07:29:05.268Z,6.17
2022-11-27T07:31:31.268Z,6.27
2022-11-27T07:33:55.152Z,6.77
2022-11-27T07:36:21.103Z,6.73
2022-11-27T07:38:44.914Z,6.20
2022-11-27T07:41:09.314Z,6.73
2022-11-27T07:43:36.205Z,6.80
2022-11-27T07:46:00.276Z,6.57
2022-11-27T07:48:23.641Z,6.70
2022-11-27T07:50:47.029Z,6.50
2022-11-27T07:53:10.423Z,6.33
2022-11-27T07:55:33.667Z,7.13
2022-11-27T07:57:57.027Z,6.67
2022-11-27T08:00:22.973Z,6.47
2022-11-27T08:02:46.196Z,6.50
2022-11-27T08:05:13.061Z,6.40
2022-11-27T08:07:36.732Z,6.28
2022-11-27T08:10:00.025Z,6.07
2022-11-27T08:12:25.270Z,6.13
2022-11-27T08:14:48.536Z,6.33
2022-11-27T08:17:15.407Z,5.93
2022-11-27T08:19:38.654Z,6.47
2022-11-27T08:22:02.004Z,5.97
2022-11-27T08:24:25.454Z,6.20
2022-11-27T08:26:48.711Z,5.82
2022-11-27T08:29:13.601Z,6.63
2022-11-27T08:31:36.955Z,6.80
2022-11-27T08:34:01.808Z,5.97
2022-11-27T08:36:27.610Z,5.80
2022-11-27T08:38:51.072Z,6.80
2022-11-27T08:41:14.393Z,5.80
2022-11-27T08:43:38.132Z,6.20
2022-11-27T08:46:05.157Z,6.05
2022-11-27T08:48:29.313Z,6.22
2022-11-27T08:50:54.687Z,6.03
2022-11-27T08:53:18.637Z,6.28
2022-11-27T08:55:42.072Z,6.05
2022-11-27T08:58:06.011Z,6.15
2022-11-27T09:00:29.439Z,6.18
2022-11-27T09:02:52.988Z,6.20
2022-11-27T09:05:16.338Z,5.53
2022-11-27T09:07:41.939Z,6.13
2022-11-27T09:10:06.729Z,6.05
2022-11-27T09:12:30.035Z,5.65
2022-11-27T09:14:53.438Z,6.45
2022-11-27T09:17:17.127Z,6.13
2022-11-27T09:19:40.444Z,5.45
2022-11-27T09:22:04.122Z,5.32
2022-11-27T09:24:28.781Z,5.93
2022-11-27T09:26:52.283Z,5.85
2022-11-27T09:29:15.624Z,5.95
2022-11-27T09:31:39.043Z,5.97
2022-11-27T09:34:02.415Z,6.05
2022-11-27T09:36:27.294Z,5.85
2022-11-27T09:38:51.095Z,5.63
2022-11-27T09:41:45.696Z,5.15
2022-11-27T09:44:26.426Z,5.50
2022-11-27T09:46:50.940Z,5.32
2022-11-27T09:49:19.973Z,5.22
2022-11-27T09:51:49.442Z,5.43
2022-11-27T09:54:23.832Z,5.45
2022-11-27T09:56:52.635Z,5.05
2022-11-27T09:59:19.483Z,5.50
2022-11-27T10:01:47.644Z,5.28
2022-11-27T10:04:16.525Z,5.10
2022-11-27T10:07:00.167Z,5.40
2022-11-27T10:09:31.308Z,5.15
2022-11-27T10:12:06.165Z,5.60
2022-11-27T10:14:45.522Z,5.72
2022-11-27T10:17:16.844Z,5.53
2022-11-27T10:19:51.798Z,5.75
2022-11-27T10:22:21.893Z,4.95
2022-11-27T10:24:57.928Z,5.10
2022-11-27T10:27:37.752Z,5.53
2022-11-27T10:30:02.704Z,5.90
2022-11-27T10:35:18.181Z,5.75
2022-11-27T10:37:44.530Z,5.50
2022-11-27T10:40:20.720Z,5.10
2022-11-27T10:42:50.710Z,5.32
2022-11-27T10:45:22.817Z,5.28
2022-11-27T10:47:48.333Z,5.40
2022-11-27T10:50:15.419Z,5.40
2022-11-27T10:52:51.150Z,5.85
2022-11-27T10:55:32.592Z,5.43
2022-11-27T10:58:10.082Z,5.47
2022-11-27T11:00:33.421Z,5.72
2022-11-27T11:03:04.321Z,5.85
2022-11-27T11:08:20.596Z,5.43
2022-11-27T11:10:51.497Z,5.93
2022-11-27T11:13:22.393Z,5.90
2022-11-27T11:15:58.564Z,5.93
2022-11-27T11:18:24.570Z,6.25
2022-11-27T11:20:51.236Z,6.22
2022-11-27T11:23:30.826Z,5.18
2022-11-27T11:25:58.966Z,5.65
2022-11-27T11:28:25.193Z,5.85
2022-11-27T11:30:57.705Z,5.75
2022-11-27T11:33:21.106Z,5.55
2022-11-27T11:35:52.873Z,5.78
2022-11-27T11:38:19.772Z,5.30
2022-11-27T11:40:45.441Z,6.00
2022-11-27T11:43:27.510Z,6.32
2022-11-27T11:45:50.790Z,5.57
2022-11-27T11:48:24.733Z,5.78
2022-11-27T11:50:54.301Z,5.18
2022-11-27T11:53:26.099Z,5.75
2022-11-27T11:56:04.141Z,5.43
2022-11-27T11:58:44.967Z,5.53
2022-11-27T12:01:27.627Z,5.43
2022-11-27T12:04:09.131Z,5.75
2022-11-27T12:06:51.308Z,5.80
2022-11-27T12:09:31.769Z,4.72
2022-11-27T12:12:02.972Z,4.90
2022-11-27T12:14:43.222Z,5.13
2022-11-27T12:17:25.585Z,4.80
2022-11-27T12:20:15.406Z,4.95
2022-11-27T12:23:08.530Z,5.10
2022-11-27T12:25:37.924Z,5.03
2022-11-27T12:28:21.634Z,4.95
2022-11-27T12:30:54.556Z,4.95
2022-11-27T12:33:38.248Z,5.03
2022-11-27T12:36:10.180Z,5.00
2022-11-27T12:38:49.437Z,4.90
2022-11-27T12:41:59.947Z,5.32
2022-11-27T12:44:31.961Z,4.93
2022-11-27T12:47:02.058Z,4.47
2022-11-27T12:49:31.234Z,4.30
2022-11-27T12:52:02.403Z,4.95
2022-11-27T12:54:32.747Z,4.80
2022-11-27T12:57:00.351Z,5.30
2022-11-27T12:59:28.076Z,4.32
2022-11-27T13:02:01.210Z,4.95
2022-11-27T13:04:31.261Z,4.45
2022-11-27T13:07:02.354Z,4.82
2022-11-27T13:09:40.141Z,4.45
2022-11-27T13:12:04.881Z,3.88
2022-11-27T13:14:29.322Z,4.47
2022-11-27T13:16:59.311Z,4.43
2022-11-27T13:19:30.141Z,4.38
2022-11-27T13:21:56.510Z,4.40
2022-11-27T13:24:20.866Z,4.40
2022-11-27T13:26:49.856Z,4.28
2022-11-27T13:29:22.637Z,4.35
2022-11-27T13:31:57.613Z,4.57
2022-11-27T13:34:25.912Z,3.95
2022-11-27T13:36:58.484Z,4.85
2022-11-27T13:39:26.914Z,4.18
2022-11-27T13:42:01.097Z,4.43
2022-11-27T13:44:27.537Z,4.10
2022-11-27T13:46:54.878Z,4.15
2022-11-27T13:49:28.347Z,4.93
2022-11-27T13:51:51.914Z,4.78
2022-11-27T13:54:18.043Z,4.65
2022-11-27T13:56:41.870Z,4.28
2022-11-27T13:59:19.163Z,4.57
2022-11-27T14:01:54.931Z,4.45
2022-11-27T14:04:19.038Z,3.95
2022-11-27T14:06:44.404Z,4.50
2022-11-27T14:09:08.978Z,4.47
2022-11-27T14:11:40.161Z,3.97
2022-11-27T14:14:14.147Z,4.45
2022-11-27T14:16:40.101Z,4.10
2022-11-27T14:19:05.978Z,4.80
2022-11-27T14:21:41.801Z,4.88
2022-11-27T14:24:26.992Z,4.90
2022-11-27T14:26:50.382Z,5.45
2022-11-27T14:29:13.760Z,5.57
2022-11-27T14:31:37.308Z,4.10
2022-11-27T14:34:20.854Z,3.97
2022-11-27T14:36:45.911Z,4.45
2022-11-27T14:39:26.732Z,3.75
2022-11-27T14:41:58.642Z,3.90
2022-11-27T14:44:21.969Z,4.07
2022-11-27T14:46:45.524Z,4.45
2022-11-27T14:49:18.022Z,4.18
2022-11-27T14:51:43.188Z,4.20
2022-11-27T14:54:13.091Z,4.20
2022-11-27T14:56:38.730Z,5.18
2022-11-27T14:59:03.381Z,3.80
2022-11-27T15:01:29.658Z,4.45
2022-11-27T15:04:00.392Z,4.60
2022-11-27T15:06:24.081Z,4.72
2022-11-27T15:09:09.138Z,3.85
2022-11-27T15:11:54.466Z,3.85
2022-11-27T15:14:18.740Z,4.50
2022-11-27T15:16:49.996Z,4.18
2022-11-27T15:19:23.504Z,3.53
2022-11-27T15:21:50.951Z,4.00
2022-11-27T15:24:35.205Z,3.58
2022-11-27T15:27:19.878Z,4.00
2022-11-27T15:30:00.293Z,3.72
2022-11-27T15:32:26.131Z,4.07
2022-11-27T15:34:50.094Z,3.53
2022-11-27T15:37:24.794Z,3.88
2022-11-27T15:39:51.834Z,4.13
2022-11-27T15:42:17.599Z,3.50
2022-11-27T15:44:41.335Z,3.85
2022-11-27T15:47:06.968Z,3.35
2022-11-27T15:49:30.862Z,3.45
2022-11-27T15:51:56.078Z,3.58
2022-11-27T15:54:19.780Z,3.50
2022-11-27T15:56:43.849Z,4.05
2022-11-27T15:59:08.950Z,3.75
2022-11-27T16:01:32.219Z,3.45
2022-11-27T16:03:55.890Z,3.60
2022-11-27T16:06:20.811Z,3.63
2022-11-27T16:08:44.218Z,4.43
2022-11-27T16:11:11.457Z,4.40
2022-11-27T16:13:35.102Z,4.07
2022-11-27T16:16:04.083Z,3.65
2022-11-27T16:18:27.890Z,3.60
2022-11-27T16:20:51.129Z,4.00
2022-11-27T16:23:14.665Z,3.63
2022-11-27T16:25:39.754Z,3.83
2022-11-27T16:28:03.425Z,3.55
2022-11-27T16:30:26.928Z,3.83
2022-11-27T16:32:51.562Z,4.15
2022-11-27T16:35:14.863Z,3.83
2022-11-27T16:37:38.218Z,3.95
2022-11-27T16:40:02.297Z,4.00
2022-11-27T16:42:26.325Z,3.85
2022-11-27T16:44:49.781Z,3.70
2022-11-27T16:47:13.091Z,4.20
2022-11-27T16:49:38.111Z,3.63
2022-11-27T16:52:02.071Z,3.30
2022-11-27T16:54:25.617Z,3.53
2022-11-27T16:56:50.146Z,4.68
2022-11-27T16:59:15.372Z,3.90
2022-11-27T17:01:41.088Z,4.28
2022-11-27T17:04:08.824Z,3.90
2022-11-27T17:06:34.784Z,4.50
2022-11-27T17:08:59.712Z,4.35
2022-11-27T17:11:24.808Z,4.68
2022-11-27T17:13:49.094Z,4.22
2022-11-27T17:16:12.473Z,3.83
2022-11-27T17:18:38.602Z,4.32
2022-11-27T17:21:04.026Z,3.92
2022-11-27T17:23:29.076Z,4.63
2022-11-27T17:25:52.314Z,4.00
2022-11-27T17:28:15.619Z,4.25
2022-11-27T17:30:39.932Z,4.00
2022-11-27T17:33:03.508Z,3.95
2022-11-27T17:35:27.340Z,4.32
2022-11-27T17:37:50.717Z,3.95
2022-11-27T17:40:16.172Z,3.80
2022-11-27T17:42:39.552Z,4.30
2022-11-27T17:45:02.822Z,4.43
2022-11-27T17:47:26.477Z,4.68
2022-11-27T17:49:50.509Z,4.68
2022-11-27T17:52:13.815Z,4.93
2022-11-27T17:54:37.166Z,4.90
2022-11-27T17:57:02.925Z,4.13
2022-11-27T17:59:26.142Z,4.60
2022-11-27T18:01:52.988Z,4.30
2022-11-27T18:04:16.722Z,4.15
2022-11-27T18:06:40.525Z,4.38
2022-11-27T18:09:05.733Z,5.60
2022-11-27T18:11:32.024Z,4.45
2022-11-27T18:13:58.011Z,4.55
2022-11-27T18:16:24.732Z,3.88
2022-11-27T18:18:48.789Z,4.72
2022-11-27T18:21:18.595Z,4.82
2022-11-27T18:24:14.628Z,4.90
2022-11-27T18:29:12.224Z,4.93
2022-11-27T18:31:39.915Z,4.85
2022-11-27T18:34:04.484Z,5.15
2022-11-27T18:36:27.675Z,5.50
2022-11-27T18:38:51.720Z,4.57
2022-11-27T18:41:17.535Z,4.45
2022-11-27T18:43:43.054Z,5.32
2022-11-27T18:46:10.856Z,5.20
2022-11-27T18:48:34.444Z,4.75
2022-11-27T18:51:04.330Z,5.47
2022-11-27T18:53:27.723Z,5.95
2022-11-27T18:55:52.848Z,5.70
2022-11-27T18:58:16.927Z,5.20
2022-11-27T19:00:40.874Z,5.22
2022-11-27T19:03:06.722Z,5.80
2022-11-27T19:05:29.945Z,5.07
2022-11-27T19:07:53.698Z,5.32
2022-11-27T19:10:18.453Z,5.40
2022-11-27T19:12:41.745Z,6.00
2022-11-27T19:15:05.915Z,5.28
2022-11-27T19:17:32.419Z,5.18
2022-11-27T19:19:57.593Z,5.43
2022-11-27T19:22:21.716Z,5.75
2022-11-27T19:24:45.048Z,6.07
2022-11-27T19:27:09.738Z,5.90
2022-11-27T19:29:33.029Z,6.32
2022-11-27T19:31:58.890Z,6.00
2022-11-27T19:34:22.780Z,6.05
2022-11-27T19:36:47.556Z,5.90
2022-11-27T19:39:15.943Z,5.35
2022-11-27T19:41:39.439Z,5.22
2022-11-27T19:44:04.558Z,5.13
2022-11-27T19:46:30.987Z,5.40
2022-11-27T19:48:57.601Z,5.15
2022-11-27T19:51:21.296Z,4.97
2022-11-27T19:53:46.126Z,5.05
2022-11-27T19:56:10.234Z,4.90
2022-11-27T19:58:34.242Z,4.75
2022-11-27T20:01:06.819Z,4.78
2022-11-27T20:03:30.156Z,5.22
2022-11-27T20:06:04.473Z,5.00
2022-11-27T20:08:27.786Z,4.47
2022-11-27T20:10:52.461Z,5.10
2022-11-27T20:13:15.798Z,4.90
2022-11-27T20:15:40.710Z,4.95
2022-11-27T20:18:04.197Z,4.80
2022-11-27T20:20:33.852Z,4.68
2022-11-27T20:22:58.281Z,5.07
2022-11-27T20:25:21.729Z,4.60
2022-11-27T20:27:46.857Z,5.10
2022-11-27T20:30:12.184Z,5.25
2022-11-27T20:32:36.133Z,5.53
2022-11-27T20:34:59.712Z,4.80
2022-11-27T20:37:22.982Z,5.20
2022-11-27T20:39:46.457Z,5.50
2022-11-27T20:42:09.838Z,4.75
2022-11-27T20:44:35.482Z,5.22
2022-11-27T20:46:58.839Z,5.20
2022-11-27T20:49:22.403Z,5.07
2022-11-27T20:51:46.683Z,4.72
2022-11-27T20:54:12.004Z,5.30
2022-11-27T20:56:35.369Z,5.30
2022-11-27T20:59:00.740Z,5.10
2022-11-27T21:01:29.783Z,4.93
2022-11-27T21:03:55.192Z,5.30
2022-11-27T21:06:24.526Z,5.07
2022-11-27T21:08:47.982Z,5.05
2022-11-27T21:11:12.863Z,5.38
2022-11-27T21:13:36.105Z,4.88
2022-11-27T21:15:59.876Z,5.18
2022-11-27T21:18:24.392Z,5.30
2022-11-27T21:20:48.055Z,5.22
2022-11-27T21:23:11.315Z,5.47
2022-11-27T21:25:34.782Z,5.65
2022-11-27T21:27:59.427Z,5.28
2022-11-27T21:30:24.621Z,6.22
2022-11-27T21:32:47.958Z,5.43
2022-11-27T21:35:12.726Z,6.50
2022-11-27T21:37:36.037Z,5.70
2022-11-27T21:39:59.245Z,5.25
2022-11-27T21:42:22.469Z,5.68
2022-11-27T21:44:45.687Z,5.47
2022-11-27T21:47:11.883Z,5.70
2022-11-27T21:49:35.321Z,5.82
2022-11-27T21:51:59.981Z,5.60
2022-11-27T21:54:28.031Z,6.22
2022-11-27T21:56:54.100Z,5.90
2022-11-27T21:59:17.402Z,5.53
2022-11-27T22:01:41.666Z,5.95
2022-11-27T22:04:05.190Z,6.18
2022-11-27T22:06:36.613Z,5.97
2022-11-27T22:09:01.291Z,6.05
2022-11-27T22:11:27.676Z,6.07
2022-11-27T22:13:51.339Z,6.45
2022-11-27T22:16:17.703Z,6.47
2022-11-27T22:18:41.303Z,5.72
2022-11-27T22:21:06.167Z,6.45
2022-11-27T22:23:29.556Z,6.55
2022-11-27T22:25:54.181Z,6.55
2022-11-27T22:28:17.553Z,6.55
2022-11-27T22:30:41.125Z,6.95
2022-11-27T22:33:04.822Z,7.03
2022-11-27T22:35:28.649Z,6.32
2022-11-27T22:37:54.567Z,6.55
2022-11-27T22:40:17.990Z,7.25
2022-11-27T22:42:42.780Z,7.18
2022-11-27T22:45:08.536Z,6.47
2022-11-27T22:47:31.771Z,7.18
2022-11-27T22:49:55.247Z,7.18
2022-11-27T22:52:18.574Z,7.43
2022-11-27T22:54:42.425Z,6.78
2022-11-27T22:57:05.867Z,7.65
2022-11-27T22:59:32.860Z,7.65
2022-11-27T23:01:56.840Z,6.90
2022-11-27T23:04:20.166Z,7.97
2022-11-27T23:06:45.911Z,7.75
2022-11-27T23:09:10.419Z,6.82
2022-11-27T23:11:33.679Z,6.90
2022-11-27T23:13:58.997Z,7.13
2022-11-27T23:16:24.093Z,7.43
2022-11-27T23:18:47.433Z,7.20
2022-11-27T23:21:13.743Z,7.22
2022-11-27T23:23:37.051Z,6.55
2022-11-27T23:26:04.928Z,7.25
2022-11-27T23:28:28.243Z,6.97
2022-11-27T23:31:08.663Z,7.57
2022-11-27T23:33:36.644Z,6.97
2022-11-27T23:36:00.356Z,7.40
2022-11-27T23:38:23.697Z,7.30
2022-11-27T23:40:47.146Z,7.03
2022-11-27T23:43:10.457Z,7.18
2022-11-27T23:45:33.762Z,7.38
2022-11-27T23:47:57.216Z,7.25
2022-11-27T23:50:21.905Z,7.40
2022-11-27T23:52:45.217Z,7.65
2022-11-27T23:55:09.315Z,7.70
2022-11-27T23:57:32.586Z,7.70
2022-11-27T23:59:55.838Z,7.85
